Time;durP1;ratioP1;P1;durP2;ratioP2;P2;SDS_P1;SDS_P2;PMS_P1;PMS_P2;Temp;Humidity;BMP_temperature;BMP_pressure;BME280_temperature;BME280_humidity;BME280_pressure;Samples;Min_cycle;Max_cycle;Signal;HPM_P1;HPM_P2
2023/10/08 00:01:03;;;;;;;;;32.75;29.75;;;;;19.12;56.45;102002.28;5105910;27;45807;-76
2023/10/08 00:03:29;;;;;;;;;39.00;31.75;;;;;19.08;56.40;102002.47;5101395;27;45399;-77
2023/10/08 00:05:55;;;;;;;;;31.50;29.00;;;;;19.14;56.82;102015.47;5116243;27;45525;-78
2023/10/08 00:08:21;;;;;;;;;42.00;31.25;;;;;19.12;56.77;102017.34;5107339;27;45699;-77
2023/10/08 00:10:47;;;;;;;;;42.50;31.75;;;;;19.09;56.39;102007.72;5109672;27;45339;-77
2023/10/08 00:13:15;;;;;;;;;45.00;33.50;;;;;19.07;56.61;102009.59;5106545;27;45358;-77
2023/10/08 00:15:53;;;;;;;;;40.50;31.75;;;;;19.03;57.11;102010.63;5111245;27;45378;-78
2023/10/08 00:18:20;;;;;;;;;45.25;33.00;;;;;19.02;57.19;102010.72;5117147;27;46750;-79
2023/10/08 00:20:57;;;;;;;;;40.75;33.00;;;;;18.99;56.93;102013.50;5096501;27;45415;-80
2023/10/08 00:23:26;;;;;;;;;37.25;31.50;;;;;18.96;56.96;102011.81;5114971;27;45323;-71
2023/10/08 00:25:54;;;;;;;;;37.50;31.00;;;;;18.94;56.95;102013.66;5097193;27;45451;-71
2023/10/08 00:28:21;;;;;;;;;42.00;32.75;;;;;18.93;57.42;102014.63;5114913;27;46064;-71
2023/10/08 00:30:47;;;;;;;;;37.25;32.00;;;;;18.91;57.45;102022.63;5121552;27;46016;-71
2023/10/08 00:33:14;;;;;;;;;33.50;27.25;;;;;18.89;57.30;102019.19;5111363;27;45301;-71
2023/10/08 00:35:41;;;;;;;;;41.50;31.75;;;;;18.89;57.28;102020.94;5118051;27;45323;-71
2023/10/08 00:38:14;;;;;;;;;48.75;34.50;;;;;18.90;57.03;102020.03;5104334;27;46095;-71
2023/10/08 00:40:45;;;;;;;;;46.75;34.50;;;;;18.87;57.51;102020.16;5114815;27;45446;-71
2023/10/08 00:43:10;;;;;;;;;45.75;34.25;;;;;18.84;57.69;102014.97;5111008;27;45449;-71
2023/10/08 00:45:43;;;;;;;;;47.75;35.25;;;;;18.83;57.73;102022.06;5119513;27;45374;-72
2023/10/08 00:48:22;;;;;;;;;47.25;35.75;;;;;18.81;57.65;102023.03;5121629;27;45758;-79
2023/10/08 00:50:47;;;;;;;;;41.50;33.75;;;;;18.78;58.11;102018.72;5107952;27;46083;-77
2023/10/08 00:53:21;;;;;;;;;47.75;37.00;;;;;18.75;57.89;102011.75;5093577;27;45556;-78
2023/10/08 00:55:53;;;;;;;;;47.25;36.50;;;;;18.72;57.71;102011.03;5102746;27;45574;-78
2023/10/08 00:58:24;;;;;;;;;52.00;40.25;;;;;18.73;58.40;102015.38;5105838;27;46361;-78
2023/10/08 01:00:52;;;;;;;;;49.50;36.50;;;;;18.72;58.35;102016.31;5119425;27;46010;-75
2023/10/08 01:03:19;;;;;;;;;49.50;36.00;;;;;18.70;58.16;102010.22;5111058;27;45514;-75
2023/10/08 01:05:47;;;;;;;;;49.75;36.00;;;;;18.69;58.35;102013.78;5115069;27;45382;-75
2023/10/08 01:08:22;;;;;;;;;48.00;36.25;;;;;18.67;58.30;102010.34;5117649;27;45436;-75
2023/10/08 01:10:48;;;;;;;;;45.25;35.00;;;;;18.66;58.24;102009.50;5105407;27;45380;-75
2023/10/08 01:13:19;;;;;;;;;46.50;34.75;;;;;18.64;58.52;102007.81;5094184;27;45447;-76
2023/10/08 01:15:47;;;;;;;;;43.75;35.75;;;;;18.63;58.46;101999.00;5099782;27;45277;-77
2023/10/08 01:18:17;;;;;;;;;51.50;36.00;;;;;18.64;58.46;102002.50;5105161;27;47075;-76
2023/10/08 01:20:52;;;;;;;;;46.50;36.50;;;;;18.63;58.50;101999.00;5119377;27;45514;-76
2023/10/08 01:23:22;;;;;;;;;46.33;36.67;;;;;18.59;58.53;101995.59;5103860;27;45559;-76
2023/10/08 01:25:52;;;;;;;;;49.25;38.25;;;;;18.58;58.60;101996.53;5099610;27;45311;-77
2023/10/08 01:28:29;;;;;;;;;43.50;34.25;;;;;18.58;58.65;101995.66;5105206;27;45446;-76
2023/10/08 01:31:00;;;;;;;;;48.75;35.00;;;;;18.55;58.93;101985.19;5103924;27;45692;-76
2023/10/08 01:33:29;;;;;;;;;51.50;36.50;;;;;18.51;58.85;101983.59;5104643;27;45363;-76
2023/10/08 01:35:55;;;;;;;;;36.75;29.75;;;;;18.53;58.90;101985.25;5109695;27;45652;-76
2023/10/08 01:38:23;;;;;;;;;44.50;35.50;;;;;18.50;59.04;101979.19;5094344;27;46910;-75
2023/10/08 01:40:52;;;;;;;;;41.50;31.50;;;;;18.51;59.04;101979.13;5123163;27;45745;-76
2023/10/08 01:43:19;;;;;;;;;43.25;33.50;;;;;18.51;59.05;101992.41;5121452;27;45438;-70
2023/10/08 01:45:48;;;;;;;;;34.00;29.75;;;;;18.48;59.00;101983.69;5134313;27;45589;-71
2023/10/08 01:48:15;;;;;;;;;39.00;32.25;;;;;18.46;59.02;101975.81;5121271;27;46440;-71
2023/10/08 01:50:40;;;;;;;;;36.75;28.50;;;;;18.44;59.14;101974.16;5121291;27;45446;-71
2023/10/08 01:53:09;;;;;;;;;36.75;30.75;;;;;18.44;59.33;101977.66;5111703;27;45972;-71
2023/10/08 01:55:48;;;;;;;;;37.00;32.25;;;;;18.45;59.53;101975.88;5123223;27;45492;-71
2023/10/08 01:58:16;;;;;;;;;34.50;28.00;;;;;18.44;59.22;101977.66;5111236;27;46312;-71
2023/10/08 02:00:45;;;;;;;;;28.25;24.25;;;;;18.43;59.51;101967.13;5108971;27;45383;-70
2023/10/08 02:03:15;;;;;;;;;35.50;27.50;;;;;18.42;59.32;101970.72;5118516;27;45158;-71
2023/10/08 02:05:42;;;;;;;;;32.00;29.00;;;;;18.40;59.55;101963.66;5121410;27;45430;-71
2023/10/08 02:08:08;;;;;;;;;33.25;24.75;;;;;18.38;59.61;101959.38;5118468;27;45530;-70
2023/10/08 02:10:35;;;;;;;;;30.75;23.25;;;;;18.36;59.75;101964.72;5115291;27;45448;-71
2023/10/08 02:13:01;;;;;;;;;32.25;26.25;;;;;18.38;59.73;101962.03;5104432;27;45328;-71
2023/10/08 02:15:27;;;;;;;;;27.50;23.00;;;;;18.35;59.56;101947.09;5121369;27;45300;-71
2023/10/08 02:17:54;;;;;;;;;26.25;24.00;;;;;18.36;59.79;101945.28;5103901;27;47333;-71
2023/10/08 02:20:21;;;;;;;;;32.50;23.00;;;;;18.34;60.10;101945.38;5113286;27;45435;-71
2023/10/08 02:22:49;;;;;;;;;28.00;23.25;;;;;18.34;60.05;101941.84;5103996;27;45352;-72
2023/10/08 02:25:14;;;;;;;;;31.75;23.00;;;;;18.30;59.92;101938.47;5107328;27;45479;-72
2023/10/08 02:27:40;;;;;;;;;27.75;24.00;;;;;18.32;59.76;101949.00;5115481;27;46185;-71
2023/10/08 02:30:09;;;;;;;;;26.50;22.00;;;;;18.32;59.98;101952.50;5112629;27;65176;-71
2023/10/08 02:32:34;;;;;;;;;29.25;26.25;;;;;18.32;60.10;101952.50;5102864;27;45527;-71
2023/10/08 02:34:59;;;;;;;;;33.25;27.25;;;;;18.30;59.91;101946.41;5104554;27;55731;-71
2023/10/08 02:37:25;;;;;;;;;24.00;19.25;;;;;18.30;60.43;101945.56;5116495;27;46136;-72
2023/10/08 02:39:50;;;;;;;;;31.00;26.50;;;;;18.26;60.33;101939.50;5110941;27;52154;-80
2023/10/08 02:42:16;;;;;;;;;37.00;26.75;;;;;18.27;60.21;101946.53;5121447;27;46010;-78
2023/10/08 02:44:41;;;;;;;;;32.00;28.00;;;;;18.27;60.45;101945.66;5114045;27;45393;-78
2023/10/08 02:47:16;;;;;;;;;36.00;28.25;;;;;18.23;60.31;101942.28;5110570;27;51867;-78
2023/10/08 02:49:42;;;;;;;;;42.00;29.50;;;;;18.23;60.20;101947.56;5103074;27;46039;-79
2023/10/08 02:52:12;;;;;;;;;33.00;27.00;;;;;18.23;60.11;101949.38;5095586;27;45339;-79
2023/10/08 02:54:37;;;;;;;;;35.75;27.25;;;;;18.21;60.31;101949.44;5111206;27;45451;-78
2023/10/08 02:57:04;;;;;;;;;34.00;22.25;;;;;18.19;60.58;101945.97;5108234;27;46288;-78
2023/10/08 02:59:42;;;;;;;;;36.50;28.50;;;;;18.16;61.16;101943.44;5101805;27;46078;-78
2023/10/08 03:02:21;;;;;;;;;27.00;25.75;;;;;18.16;60.71;101941.66;5096222;27;45551;-78
2023/10/08 03:04:47;;;;;;;;;36.50;27.00;;;;;18.14;60.65;101940.84;5105972;27;45327;-76
2023/10/08 03:07:22;;;;;;;;;38.75;31.00;;;;;18.14;60.64;101940.00;5111588;27;45493;-76
2023/10/08 03:09:50;;;;;;;;;30.50;25.00;;;;;18.12;60.87;101939.19;5118120;27;45350;-76
2023/10/08 03:12:18;;;;;;;;;27.75;22.50;;;;;18.14;60.78;101945.28;5112300;27;45318;-75
2023/10/08 03:15:01;;;;;;;;;27.50;23.25;;;;;18.11;60.99;101942.75;5113660;27;45444;-76
2023/10/08 03:17:29;;;;;;;;;24.00;21.75;;;;;18.12;60.78;101948.00;5120916;27;45478;-76
2023/10/08 03:20:01;;;;;;;;;27.25;23.25;;;;;18.09;61.06;101945.47;5102435;27;45793;-76
2023/10/08 03:22:33;;;;;;;;;27.75;22.00;;;;;18.08;60.90;101948.16;5111319;27;45424;-75
2023/10/08 03:24:58;;;;;;;;;31.00;24.75;;;;;18.08;60.60;101945.53;5110878;27;45442;-76
2023/10/08 03:27:26;;;;;;;;;34.50;25.50;;;;;18.05;61.02;101949.16;5089679;27;47179;-76
2023/10/08 03:29:54;;;;;;;;;34.25;29.00;;;;;18.03;61.08;101946.56;5111563;27;45802;-76
2023/10/08 03:32:26;;;;;;;;;27.25;22.50;;;;;18.03;61.03;101959.81;5101542;27;45321;-75
2023/10/08 03:34:54;;;;;;;;;31.75;25.50;;;;;18.03;61.22;101957.16;5113578;27;45355;-76
2023/10/08 03:37:29;;;;;;;;;30.25;23.75;;;;;18.00;61.17;101959.94;5111287;27;45465;-76
2023/10/08 03:40:01;;;;;;;;;30.75;22.50;;;;;17.99;61.17;101958.22;5112276;27;45835;-76
2023/10/08 03:42:33;;;;;;;;;31.50;23.00;;;;;17.99;61.16;101966.16;5116698;27;45518;-75
2023/10/08 03:45:09;;;;;;;;;31.25;18.00;;;;;17.97;61.46;101962.72;5115000;27;45392;-75
2023/10/08 03:47:37;;;;;;;;;26.00;22.50;;;;;17.95;61.21;101959.25;5110056;27;45609;-76
2023/10/08 03:50:05;;;;;;;;;34.00;26.25;;;;;17.96;61.34;101968.06;5119469;27;46184;-75
2023/10/08 03:52:31;;;;;;;;;27.50;23.00;;;;;17.88;61.30;101956.91;5096870;27;45398;-76
2023/10/08 03:55:13;;;;;;;;;27.75;23.50;;;;;17.93;61.44;101966.38;5111566;27;50428;-76
2023/10/08 03:57:41;;;;;;;;;29.50;26.75;;;;;17.92;61.37;101966.44;5103917;27;46754;-75
2023/10/08 04:00:12;;;;;;;;;28.00;26.25;;;;;17.90;61.63;101969.19;5119956;27;45340;-76
2023/10/08 04:02:46;;;;;;;;;26.25;22.50;;;;;17.89;61.62;101966.59;5111924;27;45501;-76
2023/10/08 04:05:27;;;;;;;;;31.00;25.25;;;;;17.87;61.53;101969.28;5110350;27;45505;-76
2023/10/08 04:13:03;;;;;;;;;35.50;27.25;;;;;17.82;61.61;101957.97;5113946;27;45261;-76
2023/10/08 04:15:28;;;;;;;;;26.25;24.25;;;;;17.82;61.78;101964.13;5106163;27;45465;-75
2023/10/08 04:17:54;;;;;;;;;24.00;22.50;;;;;17.79;61.66;101958.06;5114414;27;45628;-75
2023/10/08 04:22:59;;;;;;;;;25.25;23.50;;;;;17.76;61.87;101963.47;5139461;27;45444;-89
2023/10/08 04:25:25;;;;;;;;;38.25;30.25;;;;;17.73;61.98;101961.81;5114840;27;45449;-86
2023/10/08 04:27:51;;;;;;;;;43.50;35.00;;;;;17.69;61.53;101959.34;5099004;27;47278;-87
2023/10/08 04:30:16;;;;;;;;;42.25;36.25;;;;;17.64;61.70;101956.88;5120595;27;45343;-89
2023/10/08 04:32:42;;;;;;;;;46.25;35.50;;;;;17.60;61.66;101955.25;5121421;27;45197;-87
2023/10/08 04:35:10;;;;;;;;;43.50;34.25;;;;;17.58;61.58;101965.03;5112800;27;45426;-74
2023/10/08 04:37:35;;;;;;;;;37.75;33.50;;;;;17.51;62.08;101956.47;5115032;27;45409;-74
2023/10/08 04:40:01;;;;;;;;;45.00;33.00;;;;;17.45;62.06;101952.25;5114783;27;45374;-78
2023/10/08 04:42:27;;;;;;;;;48.50;38.00;;;;;17.41;62.23;101955.06;5115323;27;45307;-79
2023/10/08 04:44:52;;;;;;;;;46.25;37.00;;;;;17.38;62.24;101953.38;5120643;27;45255;-72
2023/10/08 04:47:33;;;;;;;;;42.00;35.00;;;;;17.34;62.51;101959.72;5105929;27;46265;-76
2023/10/08 04:49:58;;;;;;;;;47.75;37.00;;;;;17.34;62.14;101958.84;5118801;27;45752;-75
2023/10/08 04:52:25;;;;;;;;;47.75;36.75;;;;;17.31;62.50;101951.88;5101062;27;45502;-78
2023/10/08 04:54:51;;;;;;;;;46.50;34.75;;;;;17.28;62.62;101951.97;5116359;27;45461;-74
2023/10/08 04:57:17;;;;;;;;;36.50;32.00;;;;;17.29;62.69;101952.88;5098114;27;47002;-73
2023/10/08 04:59:43;;;;;;;;;42.50;34.50;;;;;17.28;62.60;101946.69;5117585;27;45834;-82
2023/10/08 05:02:13;;;;;;;;;45.75;35.75;;;;;17.27;62.90;101952.91;5114291;27;45300;-85
2023/10/08 05:13:15;;;;;;;;;41.75;33.00;;;;;17.28;63.02;101957.28;5112185;27;45358;-74
2023/10/08 05:16:02;;;;;;;;;44.25;34.00;;;;;17.29;62.59;101961.66;5107807;27;45272;-74
2023/10/08 05:18:54;;;;;;;;;42.50;34.00;;;;;17.25;62.72;101966.19;5104170;27;47564;-75
2023/10/08 05:21:28;;;;;;;;;44.75;33.25;;;;;17.21;62.35;101969.00;5114828;27;45441;-75
2023/10/08 05:24:08;;;;;;;;;46.75;34.25;;;;;17.13;62.65;101963.97;5109512;27;45438;-75
2023/10/08 05:26:41;;;;;;;;;47.00;34.00;;;;;17.05;62.93;101966.91;5118341;27;45708;-74
2023/10/08 05:29:39;;;;;;;;;40.00;33.75;;;;;17.00;63.01;101962.69;5104751;27;46211;-74
2023/10/08 05:34:42;;;;;;;;;42.25;33.00;;;;;16.91;63.12;101960.34;5121011;27;45390;-74
2023/10/08 05:42:16;;;;;;;;;41.25;32.75;;;;;16.88;63.46;101961.31;5118364;27;45370;-74
2023/10/08 05:44:46;;;;;;;;;47.00;33.75;;;;;16.91;63.34;101969.16;5119290;27;45482;-74
2023/10/08 05:48:07;;;;;;;;;38.50;33.00;;;;;16.88;63.15;101962.16;5100044;27;45260;-74
2023/10/08 05:53:19;;;;;;;;;34.50;31.50;;;;;16.80;63.36;101964.19;5119742;27;45856;-74
2023/10/08 05:55:36;;;;;;;;;46.00;32.00;;;;;16.76;63.59;101966.97;5113120;27;45420;-74
2023/10/08 05:59:14;;;;;;;;;50.00;38.50;;;;;16.73;63.71;101967.94;5115028;27;45356;-74
2023/10/08 06:01:09;;;;;;;;;43.00;34.50;;;;;16.71;63.55;101969.75;5103933;27;46094;-73
2023/10/08 06:03:48;;;;;;;;;45.00;34.50;;;;;16.69;63.44;101974.25;5117876;27;45432;-76
2023/10/08 06:08:51;;;;;;;;;47.75;34.75;;;;;16.65;63.98;101975.28;5112803;27;45396;-77
2023/10/08 06:11:36;;;;;;;;;45.50;36.75;;;;;16.66;64.04;101974.34;5115273;27;46233;-76
2023/10/08 06:14:03;;;;;;;;;48.25;36.75;;;;;16.65;64.00;101973.47;5119385;27;45807;-76
2023/10/08 06:16:41;;;;;;;;;41.25;33.25;;;;;16.72;64.05;101973.28;5111222;27;45353;-77
2023/10/08 06:19:06;;;;;;;;;48.00;33.75;;;;;16.74;63.85;101987.31;5107867;27;45215;-78
2023/10/08 06:21:32;;;;;;;;;41.75;33.25;;;;;16.75;63.89;101982.00;5113781;27;45433;-77
2023/10/08 06:23:57;;;;;;;;;37.75;30.00;;;;;16.74;63.60;101988.19;5113023;27;56883;-77
2023/10/08 06:26:25;;;;;;;;;39.25;31.00;;;;;16.74;63.69;101988.19;5120545;27;45479;-75
2023/10/08 06:28:57;;;;;;;;;40.25;32.75;;;;;16.72;64.00;101990.00;5108646;27;45391;-81
2023/10/08 06:31:24;;;;;;;;;34.50;31.00;;;;;16.68;63.72;101991.88;5150163;27;45814;-85
2023/10/08 06:33:50;;;;;;;;;38.75;31.75;;;;;16.68;64.05;101991.88;5128908;27;45916;-77
2023/10/08 06:36:16;;;;;;;;;31.50;30.00;;;;;16.69;64.06;101998.03;5101487;27;55530;-77
2023/10/08 06:38:49;;;;;;;;;38.50;30.00;;;;;16.70;64.27;101997.13;5114026;27;45543;-76
2023/10/08 06:41:17;;;;;;;;;36.50;30.25;;;;;16.72;64.06;101990.00;5111175;27;46765;-78
2023/10/08 06:43:49;;;;;;;;;36.25;31.00;;;;;16.73;64.20;101991.72;5105792;27;45402;-76
2023/10/08 06:46:15;;;;;;;;;33.50;28.50;;;;;16.76;64.35;101996.06;5110592;27;45408;-75
2023/10/08 06:48:42;;;;;;;;;36.50;27.25;;;;;16.79;64.33;101988.91;5108096;27;45623;-75
2023/10/08 06:51:12;;;;;;;;;31.25;28.25;;;;;16.86;64.10;102003.66;5114802;27;46346;-75
2023/10/08 06:53:44;;;;;;;;;32.50;26.00;;;;;16.89;64.39;101998.28;5107351;27;45272;-76
2023/10/08 06:56:12;;;;;;;;;33.00;26.75;;;;;16.94;64.18;102000.75;5107784;27;45398;-74
2023/10/08 06:58:46;;;;;;;;;31.50;26.75;;;;;16.98;64.43;101998.88;5119901;27;45451;-75
2023/10/08 07:01:13;;;;;;;;;21.50;18.25;;;;;17.01;64.42;102001.44;5120152;27;45664;-75
2023/10/08 07:03:38;;;;;;;;;27.75;25.25;;;;;17.06;64.27;102003.00;5115788;27;45847;-75
2023/10/08 07:06:16;;;;;;;;;26.75;24.25;;;;;17.13;64.11;102000.16;5107267;27;66196;-75
2023/10/08 07:08:43;;;;;;;;;26.00;24.00;;;;;17.19;64.07;102010.50;5114930;27;45479;-75
2023/10/08 07:11:11;;;;;;;;;27.25;23.25;;;;;17.24;63.85;102000.63;5120690;27;46069;-75
2023/10/08 07:13:37;;;;;;;;;29.25;21.75;;;;;17.27;63.74;101997.88;5103571;27;45832;-75
2023/10/08 07:16:04;;;;;;;;;28.25;21.00;;;;;17.32;63.75;102000.38;5118178;27;45683;-73
2023/10/08 07:18:33;;;;;;;;;29.50;22.25;;;;;17.37;63.50;102007.25;5125557;27;45446;-74
2023/10/08 07:21:11;;;;;;;;;26.25;22.25;;;;;17.38;63.45;102005.44;5114888;27;45558;-74
2023/10/08 07:23:39;;;;;;;;;22.25;19.75;;;;;17.46;63.50;102016.66;5118977;27;45478;-75
2023/10/08 07:26:10;;;;;;;;;27.25;23.75;;;;;17.50;63.29;102017.41;5120585;27;45344;-79
2023/10/08 07:28:43;;;;;;;;;24.00;21.00;;;;;17.51;63.37;102008.53;5118095;27;45378;-77
2023/10/08 07:31:15;;;;;;;;;26.25;21.00;;;;;17.55;63.19;102013.66;5118175;27;46269;-74
2023/10/08 07:33:45;;;;;;;;;30.00;24.00;;;;;17.60;63.09;102009.06;5118649;27;45386;-82
2023/10/08 07:36:18;;;;;;;;;28.00;24.50;;;;;17.62;63.03;102009.88;5102889;27;45320;-74
2023/10/08 07:38:46;;;;;;;;;23.75;20.00;;;;;17.64;63.17;102004.53;5106902;27;45310;-72
2023/10/08 07:41:14;;;;;;;;;35.00;24.75;;;;;17.70;63.24;102009.59;5113550;27;46384;-71
2023/10/08 07:43:43;;;;;;;;;26.75;22.00;;;;;17.75;62.88;102002.34;5100186;27;45741;-71
2023/10/08 07:46:09;;;;;;;;;30.25;24.50;;;;;17.82;62.84;102001.19;5113899;27;45516;-71
2023/10/08 07:48:35;;;;;;;;;32.75;23.50;;;;;17.86;62.52;101996.69;5105946;27;45409;-70
2023/10/08 07:51:02;;;;;;;;;26.25;24.25;;;;;17.87;62.70;102006.34;5110172;27;45428;-69
2023/10/08 07:53:37;;;;;;;;;32.50;26.00;;;;;17.88;62.13;102010.72;5117735;27;46005;-70
2023/10/08 07:56:06;;;;;;;;;23.50;21.75;;;;;17.95;62.15;102014.00;5114391;27;45436;-70
2023/10/08 07:58:33;;;;;;;;;26.25;20.00;;;;;17.98;62.13;102020.06;5110918;27;45560;-70
2023/10/08 08:01:06;;;;;;;;;31.00;26.00;;;;;18.01;61.79;102012.00;5096318;27;45684;-70
2023/10/08 08:03:34;;;;;;;;;23.75;21.25;;;;;18.07;62.04;102016.19;5113741;27;45897;-67
2023/10/08 08:06:00;;;;;;;;;27.50;25.50;;;;;18.10;61.85;102013.44;5102513;27;45283;-67
2023/10/08 08:08:27;;;;;;;;;29.75;25.25;;;;;18.13;61.71;102020.38;5093640;27;45547;-68
2023/10/08 08:10:57;;;;;;;;;32.00;27.50;;;;;18.16;61.45;102018.47;5103718;27;46264;-68
2023/10/08 08:13:27;;;;;;;;;26.00;20.75;;;;;18.20;61.42;102019.22;5102430;27;45394;-70
2023/10/08 08:15:58;;;;;;;;;24.25;21.75;;;;;18.25;61.49;102019.91;5108292;27;45358;-70
2023/10/08 08:18:24;;;;;;;;;29.25;26.00;;;;;18.28;61.29;102022.47;5084276;27;45734;-69
2023/10/08 08:20:49;;;;;;;;;29.00;24.25;;;;;18.36;60.91;102022.16;5102034;27;47108;-70
2023/10/08 08:23:16;;;;;;;;;27.00;21.75;;;;;18.38;60.74;102017.69;5123895;27;45346;-69
2023/10/08 08:28:28;;;;;;;;;26.00;23.00;;;;;18.51;60.46;102028.66;5112194;27;45367;-69
2023/10/08 08:30:57;;;;;;;;;24.75;20.75;;;;;18.51;60.22;102021.56;5110074;27;45673;-70
2023/10/08 08:33:22;;;;;;;;;23.25;21.25;;;;;18.56;60.20;102024.88;5111866;27;45399;-71
2023/10/08 08:36:06;;;;;;;;;27.75;18.75;;;;;18.57;59.95;102029.28;5118189;27;46283;-71
2023/10/08 08:38:32;;;;;;;;;24.75;20.75;;;;;18.58;59.92;102028.34;5092129;27;45549;-69
2023/10/08 08:41:06;;;;;;;;;27.75;22.00;;;;;18.64;59.97;102035.19;5117556;27;47439;-70
2023/10/08 08:43:34;;;;;;;;;29.75;24.50;;;;;18.69;59.68;102033.19;5109318;27;45389;-69
2023/10/08 08:46:01;;;;;;;;;25.25;23.00;;;;;18.78;59.50;102034.63;5123813;27;45556;-68
2023/10/08 08:48:27;;;;;;;;;28.00;22.75;;;;;19.04;59.01;102027.44;5115454;27;45634;-69
2023/10/08 08:50:52;;;;;;;;;25.75;21.50;;;;;19.41;58.65;102032.03;5108129;27;64963;-69
2023/10/08 08:53:19;;;;;;;;;30.50;21.75;;;;;19.77;57.82;102036.66;5122380;27;45241;-72
2023/10/08 08:55:45;;;;;;;;;26.00;21.50;;;;;19.86;57.39;102038.03;5119671;27;45450;-69
2023/10/08 08:58:11;;;;;;;;;26.00;20.50;;;;;19.81;57.37;102030.28;5124790;27;45487;-69
2023/10/08 09:00:37;;;;;;;;;19.75;16.50;;;;;19.80;57.31;102035.69;5126295;27;45663;-68
2023/10/08 09:03:06;;;;;;;;;26.25;24.00;;;;;19.82;57.11;102042.63;5114475;27;45868;-71
2023/10/08 09:05:34;;;;;;;;;25.00;23.25;;;;;19.88;57.24;102028.19;5127371;27;45312;-73
2023/10/08 09:08:03;;;;;;;;;22.00;19.50;;;;;19.94;56.74;102029.72;5108897;27;47068;-70
2023/10/08 09:10:29;;;;;;;;;22.75;22.00;;;;;19.99;56.72;102031.25;5112474;27;45689;-74
2023/10/08 09:12:59;;;;;;;;;17.00;14.00;;;;;20.02;56.43;102022.25;5128688;27;45477;-72
2023/10/08 09:15:26;;;;;;;;;25.25;20.00;;;;;20.08;56.77;102024.66;5117830;27;45469;-72
2023/10/08 09:17:54;;;;;;;;;25.50;20.75;;;;;20.12;56.64;102026.22;5121783;27;45658;-69
2023/10/08 09:20:20;;;;;;;;;22.50;18.00;;;;;20.15;55.98;102028.75;5108737;27;45427;-69
2023/10/08 09:22:47;;;;;;;;;21.00;18.50;;;;;20.17;55.45;102023.34;5117015;27;45398;-69
2023/10/08 09:25:22;;;;;;;;;22.75;19.00;;;;;20.20;55.75;102029.41;5118687;27;45333;-72
2023/10/08 09:27:53;;;;;;;;;18.75;16.50;;;;;20.24;55.76;102022.13;5125324;27;45654;-70
2023/10/08 09:30:19;;;;;;;;;23.50;18.00;;;;;20.26;55.08;102022.94;5114648;27;46232;-69
2023/10/08 09:32:45;;;;;;;;;21.00;19.50;;;;;20.31;55.04;102018.25;5117885;27;71209;-70
2023/10/08 09:35:13;;;;;;;;;22.25;16.25;;;;;20.37;54.92;102023.25;5101061;27;66376;-73
2023/10/08 09:37:39;;;;;;;;;19.25;16.75;;;;;20.48;54.90;102014.78;5095983;27;46391;-75
2023/10/08 09:40:09;;;;;;;;;23.25;18.50;;;;;20.60;54.63;102019.50;5113903;27;46213;-72
2023/10/08 09:42:35;;;;;;;;;26.75;19.75;;;;;20.69;54.78;102012.91;5130040;27;45344;-71
2023/10/08 09:45:05;;;;;;;;;26.75;19.50;;;;;20.83;54.48;102010.41;5126239;27;45279;-71
2023/10/08 09:47:36;;;;;;;;;29.00;23.50;;;;;20.97;54.19;102014.19;5120032;27;45511;-71
2023/10/08 09:50:07;;;;;;;;;28.00;25.25;;;;;21.05;54.75;102004.88;5108193;27;45432;-72
2023/10/08 09:52:59;;;;;;;;;23.00;21.25;;;;;21.20;54.07;102018.34;5106275;27;46467;-70
2023/10/08 09:55:25;;;;;;;;;20.25;20.25;;;;;21.27;54.00;101998.44;5126728;27;45266;-73
2023/10/08 09:57:51;;;;;;;;;26.50;19.25;;;;;21.30;53.80;102000.97;5105958;27;45541;-71
2023/10/08 10:00:29;;;;;;;;;29.50;22.00;;;;;21.36;53.29;101992.63;5108688;27;47504;-72
2023/10/08 10:02:55;;;;;;;;;24.75;17.75;;;;;21.48;53.97;102006.25;5124600;27;45471;-69
2023/10/08 10:05:21;;;;;;;;;22.00;20.50;;;;;21.51;53.33;102001.63;5147673;27;45472;-70
2023/10/08 10:07:49;;;;;;;;;24.25;22.25;;;;;21.58;52.72;102003.06;5115774;27;45542;-72
2023/10/08 10:10:38;;;;;;;;;25.50;20.25;;;;;21.67;53.19;102004.34;5126281;27;56969;-73
2023/10/08 10:13:04;;;;;;;;;24.50;21.25;;;;;21.76;53.04;102006.53;5136516;27;45272;-74
2023/10/08 10:15:32;;;;;;;;;26.25;22.00;;;;;21.84;52.81;102005.25;5100504;27;45489;-74
2023/10/08 10:18:15;;;;;;;;;21.25;18.25;;;;;21.89;52.74;101992.56;5112813;27;45386;-71
2023/10/08 10:20:51;;;;;;;;;20.25;16.25;;;;;22.03;52.96;102003.31;5110023;27;45585;-70
2023/10/08 10:23:42;;;;;;;;;21.00;20.75;;;;;22.16;52.69;102003.47;5110426;27;45325;-75
2023/10/08 10:26:34;;;;;;;;;25.00;21.00;;;;;22.24;51.64;102008.38;5121771;27;45499;-76
2023/10/08 10:29:15;;;;;;;;;26.25;18.75;;;;;22.32;51.48;102004.38;5115322;27;45428;-72
2023/10/08 10:31:46;;;;;;;;;28.75;25.00;;;;;22.37;51.84;101996.97;5111906;27;45568;-70
2023/10/08 10:34:15;;;;;;;;;30.00;22.75;;;;;22.45;51.24;101998.34;5111226;27;45918;-73
2023/10/08 10:36:42;;;;;;;;;22.75;20.50;;;;;22.55;51.35;101989.72;5100696;27;45631;-74
2023/10/08 10:39:16;;;;;;;;;19.00;17.75;;;;;22.63;51.08;101991.97;5102873;27;45486;-69
2023/10/08 10:41:45;;;;;;;;;32.25;24.75;;;;;22.72;51.46;101994.09;5119342;27;45710;-77
2023/10/08 10:44:13;;;;;;;;;22.50;18.25;;;;;22.81;50.56;102006.03;5119777;27;45426;-73
2023/10/08 10:46:41;;;;;;;;;19.50;17.50;;;;;22.88;50.84;102007.41;5116714;27;45529;-78
2023/10/08 10:49:18;;;;;;;;;20.00;16.00;;;;;22.93;50.92;102002.66;5102469;27;45891;-74
2023/10/08 10:51:47;;;;;;;;;22.25;16.75;;;;;22.99;50.71;101998.75;5113870;27;47225;-71
2023/10/08 10:54:19;;;;;;;;;18.75;13.25;;;;;23.03;50.54;101997.59;5123828;27;45563;-73
2023/10/08 10:56:47;;;;;;;;;17.75;16.00;;;;;23.07;50.39;101990.31;5116966;27;45477;-71
2023/10/08 10:59:19;;;;;;;;;19.50;14.75;;;;;23.11;50.04;101995.38;5113534;27;45562;-77
2023/10/08 11:02:05;;;;;;;;;18.75;15.25;;;;;23.17;49.60;101996.81;5120315;27;45546;-75
2023/10/08 11:04:30;;;;;;;;;20.25;15.25;;;;;23.20;49.60;101993.97;5132625;27;45306;-73
2023/10/08 11:07:00;;;;;;;;;26.00;22.25;;;;;23.25;49.47;102007.91;5117896;27;50341;-69
2023/10/08 11:09:59;;;;;;;;;26.25;25.25;;;;;23.27;49.66;101995.31;5098827;27;45298;-74
2023/10/08 11:12:22;;;;;;;;;28.00;24.50;;;;;23.29;49.46;101996.06;5120776;27;47076;-75
2023/10/08 11:14:51;;;;;;;;;16.50;14.75;;;;;23.33;49.18;101995.91;5118642;27;45482;-72
2023/10/08 11:17:20;;;;;;;;;25.50;17.75;;;;;23.35;49.31;101992.16;5106880;27;45484;-74
2023/10/08 11:19:46;;;;;;;;;18.00;14.25;;;;;23.38;49.09;101989.31;5118599;27;45538;-74
2023/10/08 11:22:16;;;;;;;;;18.25;15.00;;;;;23.41;49.01;101988.25;5116277;27;46915;-75
2023/10/08 11:24:44;;;;;;;;;17.50;15.25;;;;;23.44;49.17;101993.41;5107786;27;45812;-73
2023/10/08 11:27:16;;;;;;;;;16.75;13.50;;;;;23.46;48.93;101995.06;5114315;27;45780;-74
2023/10/08 11:29:56;;;;;;;;;18.25;14.25;;;;;23.48;48.22;101990.47;5102198;27;45424;-74
2023/10/08 11:32:25;;;;;;;;;17.75;14.75;;;;;23.49;48.04;101991.31;5104846;27;47568;-73
2023/10/08 11:35:01;;;;;;;;;12.00;9.75;;;;;23.53;48.07;101989.31;5109432;27;47160;-73
2023/10/08 11:37:27;;;;;;;;;10.75;10.00;;;;;23.55;47.22;101984.72;5109677;27;45542;-72
2023/10/08 11:39:57;;;;;;;;;13.25;9.00;;;;;23.56;47.92;101989.13;5109630;27;45376;-72
2023/10/08 11:42:40;;;;;;;;;15.50;13.25;;;;;23.59;47.53;101978.25;5107362;27;48052;-72
2023/10/08 11:45:19;;;;;;;;;15.75;9.75;;;;;23.59;47.62;101973.78;5117058;27;45482;-72
2023/10/08 11:47:55;;;;;;;;;13.25;10.25;;;;;23.62;47.46;101972.72;5116279;27;45639;-81
2023/10/08 11:50:30;;;;;;;;;28.00;14.00;;;;;23.66;46.90;101971.59;5114764;27;45583;-73
2023/10/08 11:53:01;;;;;;;;;14.25;11.75;;;;;23.69;47.31;101960.66;5108918;27;45579;-73
2023/10/08 11:55:26;;;;;;;;;13.50;12.25;;;;;23.74;47.63;101958.56;5121818;27;45339;-73